sensor_id;sensor_type;location;lat;lon;timestamp;P1;durP1;ratioP1;P2;durP2;ratioP2
6985;SDS011;3533;51.246;6.850;2024-01-30T00:01:24;2.83;;;2.63;;
6985;SDS011;3533;51.246;6.850;2024-01-30T00:03:50;2.80;;;2.70;;
6985;SDS011;3533;51.246;6.850;2024-01-30T00:06:18;2.80;;;2.70;;
6985;SDS011;3533;51.246;6.850;2024-01-30T00:08:45;3.13;;;2.93;;
6985;SDS011;3533;51.246;6.850;2024-01-30T00:11:13;3.17;;;2.97;;
6985;SDS011;3533;51.246;6.850;2024-01-30T00:13:39;3.23;;;2.97;;
6985;SDS011;3533;51.246;6.850;2024-01-30T00:16:05;2.87;;;2.73;;
6985;SDS011;3533;51.246;6.850;2024-01-30T00:18:30;3.30;;;3.10;;
6985;SDS011;3533;51.246;6.850;2024-01-30T00:20:56;3.03;;;2.83;;
6985;SDS011;3533;51.246;6.850;2024-01-30T00:23:21;2.87;;;2.77;;
6985;SDS011;3533;51.246;6.850;2024-01-30T00:25:47;3.27;;;3.07;;
6985;SDS011;3533;51.246;6.850;2024-01-30T00:28:13;3.03;;;2.90;;
6985;SDS011;3533;51.246;6.850;2024-01-30T00:30:38;3.43;;;3.23;;
6985;SDS011;3533;51.246;6.850;2024-01-30T00:33:04;2.70;;;2.60;;
6985;SDS011;3533;51.246;6.850;2024-01-30T00:35:29;2.70;;;2.60;;
6985;SDS011;3533;51.246;6.850;2024-01-30T00:37:55;3.40;;;3.20;;
6985;SDS011;3533;51.246;6.850;2024-01-30T00:40:21;3.17;;;2.97;;
6985;SDS011;3533;51.246;6.850;2024-01-30T00:42:46;2.57;;;2.47;;
6985;SDS011;3533;51.246;6.850;2024-01-30T00:45:13;3.27;;;3.07;;
6985;SDS011;3533;51.246;6.850;2024-01-30T00:47:39;3.07;;;2.90;;
6985;SDS011;3533;51.246;6.850;2024-01-30T00:50:05;2.87;;;2.70;;
6985;SDS011;3533;51.246;6.850;2024-01-30T00:52:31;2.77;;;2.57;;
6985;SDS011;3533;51.246;6.850;2024-01-30T00:54:58;3.40;;;3.20;;
6985;SDS011;3533;51.246;6.850;2024-01-30T00:57:24;3.00;;;2.83;;
6985;SDS011;3533;51.246;6.850;2024-01-30T00:59:49;2.80;;;2.60;;
6985;SDS011;3533;51.246;6.850;2024-01-30T01:02:15;3.13;;;2.93;;
6985;SDS011;3533;51.246;6.850;2024-01-30T01:04:42;3.07;;;2.87;;
6985;SDS011;3533;51.246;6.850;2024-01-30T01:07:07;3.03;;;2.93;;
6985;SDS011;3533;51.246;6.850;2024-01-30T01:09:33;3.03;;;2.83;;
6985;SDS011;3533;51.246;6.850;2024-01-30T01:11:59;3.30;;;3.10;;
6985;SDS011;3533;51.246;6.850;2024-01-30T01:14:24;3.43;;;3.03;;
6985;SDS011;3533;51.246;6.850;2024-01-30T01:16:50;2.80;;;2.60;;
6985;SDS011;3533;51.246;6.850;2024-01-30T01:19:15;3.30;;;3.10;;
6985;SDS011;3533;51.246;6.850;2024-01-30T01:21:41;3.20;;;3.00;;
6985;SDS011;3533;51.246;6.850;2024-01-30T01:24:06;3.13;;;2.93;;
6985;SDS011;3533;51.246;6.850;2024-01-30T01:26:32;3.03;;;2.83;;
6985;SDS011;3533;51.246;6.850;2024-01-30T01:28:58;2.67;;;2.57;;
6985;SDS011;3533;51.246;6.850;2024-01-30T01:31:23;2.80;;;2.70;;
6985;SDS011;3533;51.246;6.850;2024-01-30T01:33:49;3.37;;;3.17;;
6985;SDS011;3533;51.246;6.850;2024-01-30T01:36:15;3.73;;;3.53;;
6985;SDS011;3533;51.246;6.850;2024-01-30T01:38:41;3.10;;;2.90;;
6985;SDS011;3533;51.246;6.850;2024-01-30T01:41:06;3.33;;;3.13;;
6985;SDS011;3533;51.246;6.850;2024-01-30T01:43:32;3.40;;;3.20;;
6985;SDS011;3533;51.246;6.850;2024-01-30T01:45:58;3.10;;;2.90;;
6985;SDS011;3533;51.246;6.850;2024-01-30T01:48:24;2.73;;;2.63;;
6985;SDS011;3533;51.246;6.850;2024-01-30T01:50:50;3.23;;;3.03;;
6985;SDS011;3533;51.246;6.850;2024-01-30T01:53:17;3.33;;;2.90;;
6985;SDS011;3533;51.246;6.850;2024-01-30T01:55:42;3.00;;;2.80;;
6985;SDS011;3533;51.246;6.850;2024-01-30T01:58:08;3.27;;;3.07;;
6985;SDS011;3533;51.246;6.850;2024-01-30T02:00:35;3.40;;;3.20;;
6985;SDS011;3533;51.246;6.850;2024-01-30T02:03:04;3.10;;;2.90;;
6985;SDS011;3533;51.246;6.850;2024-01-30T02:05:31;2.87;;;2.67;;
6985;SDS011;3533;51.246;6.850;2024-01-30T02:07:57;3.13;;;2.93;;
6985;SDS011;3533;51.246;6.850;2024-01-30T02:10:23;3.47;;;3.27;;
6985;SDS011;3533;51.246;6.850;2024-01-30T02:12:48;3.03;;;2.83;;
6985;SDS011;3533;51.246;6.850;2024-01-30T02:15:15;3.07;;;2.90;;
6985;SDS011;3533;51.246;6.850;2024-01-30T02:17:40;3.13;;;2.93;;
6985;SDS011;3533;51.246;6.850;2024-01-30T02:20:06;3.03;;;2.83;;
6985;SDS011;3533;51.246;6.850;2024-01-30T02:22:32;3.43;;;3.23;;
6985;SDS011;3533;51.246;6.850;2024-01-30T02:25:00;3.40;;;3.20;;
6985;SDS011;3533;51.246;6.850;2024-01-30T02:27:25;2.80;;;2.60;;
6985;SDS011;3533;51.246;6.850;2024-01-30T02:29:51;3.00;;;2.80;;
6985;SDS011;3533;51.246;6.850;2024-01-30T02:32:16;2.90;;;2.80;;
6985;SDS011;3533;51.246;6.850;2024-01-30T02:34:42;3.27;;;3.07;;
6985;SDS011;3533;51.246;6.850;2024-01-30T02:37:08;3.33;;;3.13;;
6985;SDS011;3533;51.246;6.850;2024-01-30T02:39:33;3.30;;;3.07;;
6985;SDS011;3533;51.246;6.850;2024-01-30T02:41:59;3.00;;;2.80;;
6985;SDS011;3533;51.246;6.850;2024-01-30T02:44:25;2.77;;;2.67;;
6985;SDS011;3533;51.246;6.850;2024-01-30T02:46:50;3.30;;;3.10;;
6985;SDS011;3533;51.246;6.850;2024-01-30T02:49:16;3.23;;;3.03;;
6985;SDS011;3533;51.246;6.850;2024-01-30T02:51:41;3.53;;;3.33;;
6985;SDS011;3533;51.246;6.850;2024-01-30T02:54:07;2.93;;;2.73;;
6985;SDS011;3533;51.246;6.850;2024-01-30T02:56:32;3.77;;;3.57;;
6985;SDS011;3533;51.246;6.850;2024-01-30T02:58:58;3.10;;;2.90;;
6985;SDS011;3533;51.246;6.850;2024-01-30T03:01:23;3.10;;;2.90;;
6985;SDS011;3533;51.246;6.850;2024-01-30T03:03:49;3.07;;;2.87;;
6985;SDS011;3533;51.246;6.850;2024-01-30T03:06:15;3.50;;;3.30;;
6985;SDS011;3533;51.246;6.850;2024-01-30T03:08:42;3.33;;;3.13;;
6985;SDS011;3533;51.246;6.850;2024-01-30T03:11:08;3.40;;;3.20;;
6985;SDS011;3533;51.246;6.850;2024-01-30T03:13:33;2.90;;;2.70;;
6985;SDS011;3533;51.246;6.850;2024-01-30T03:15:59;3.30;;;3.10;;
6985;SDS011;3533;51.246;6.850;2024-01-30T03:18:24;3.43;;;3.23;;
6985;SDS011;3533;51.246;6.850;2024-01-30T03:20:50;3.60;;;3.40;;
6985;SDS011;3533;51.246;6.850;2024-01-30T03:23:15;3.47;;;3.27;;
6985;SDS011;3533;51.246;6.850;2024-01-30T03:25:41;4.03;;;3.83;;
6985;SDS011;3533;51.246;6.850;2024-01-30T03:28:06;3.30;;;3.10;;
6985;SDS011;3533;51.246;6.850;2024-01-30T03:30:32;3.30;;;3.10;;
6985;SDS011;3533;51.246;6.850;2024-01-30T03:32:59;3.00;;;2.80;;
6985;SDS011;3533;51.246;6.850;2024-01-30T03:35:24;3.50;;;3.30;;
6985;SDS011;3533;51.246;6.850;2024-01-30T03:37:50;3.57;;;3.37;;
6985;SDS011;3533;51.246;6.850;2024-01-30T03:40:15;3.17;;;2.97;;
6985;SDS011;3533;51.246;6.850;2024-01-30T03:42:41;3.20;;;3.00;;
6985;SDS011;3533;51.246;6.850;2024-01-30T03:45:06;3.43;;;3.23;;
6985;SDS011;3533;51.246;6.850;2024-01-30T03:47:32;3.33;;;3.13;;
6985;SDS011;3533;51.246;6.850;2024-01-30T03:49:58;3.30;;;3.10;;
6985;SDS011;3533;51.246;6.850;2024-01-30T03:52:23;3.20;;;3.00;;
6985;SDS011;3533;51.246;6.850;2024-01-30T03:54:49;3.30;;;3.10;;
6985;SDS011;3533;51.246;6.850;2024-01-30T03:57:14;3.77;;;3.47;;
6985;SDS011;3533;51.246;6.850;2024-01-30T03:59:43;3.63;;;3.33;;
6985;SDS011;3533;51.246;6.850;2024-01-30T04:02:09;2.80;;;2.60;;
6985;SDS011;3533;51.246;6.850;2024-01-30T04:04:36;2.93;;;2.73;;
6985;SDS011;3533;51.246;6.850;2024-01-30T04:07:01;3.37;;;3.17;;
6985;SDS011;3533;51.246;6.850;2024-01-30T04:09:27;2.70;;;2.60;;
6985;SDS011;3533;51.246;6.850;2024-01-30T04:11:53;3.53;;;3.33;;
6985;SDS011;3533;51.246;6.850;2024-01-30T04:14:19;3.63;;;3.43;;
6985;SDS011;3533;51.246;6.850;2024-01-30T04:16:44;3.30;;;3.10;;
6985;SDS011;3533;51.246;6.850;2024-01-30T04:19:10;3.10;;;2.90;;
6985;SDS011;3533;51.246;6.850;2024-01-30T04:21:35;3.60;;;3.40;;
6985;SDS011;3533;51.246;6.850;2024-01-30T04:24:01;3.50;;;3.30;;
6985;SDS011;3533;51.246;6.850;2024-01-30T04:26:26;3.17;;;2.97;;
6985;SDS011;3533;51.246;6.850;2024-01-30T04:28:52;3.53;;;3.27;;
6985;SDS011;3533;51.246;6.850;2024-01-30T04:31:18;3.73;;;3.43;;
6985;SDS011;3533;51.246;6.850;2024-01-30T04:33:43;3.00;;;2.80;;
6985;SDS011;3533;51.246;6.850;2024-01-30T04:36:09;3.40;;;3.20;;
6985;SDS011;3533;51.246;6.850;2024-01-30T04:38:40;2.70;;;2.60;;
6985;SDS011;3533;51.246;6.850;2024-01-30T04:41:06;3.20;;;3.00;;
6985;SDS011;3533;51.246;6.850;2024-01-30T04:43:32;3.67;;;3.47;;
6985;SDS011;3533;51.246;6.850;2024-01-30T04:45:57;3.43;;;3.23;;
6985;SDS011;3533;51.246;6.850;2024-01-30T04:48:23;2.97;;;2.87;;
6985;SDS011;3533;51.246;6.850;2024-01-30T04:50:48;3.57;;;3.37;;
6985;SDS011;3533;51.246;6.850;2024-01-30T04:53:14;3.13;;;3.03;;
6985;SDS011;3533;51.246;6.850;2024-01-30T04:55:39;3.27;;;3.07;;
6985;SDS011;3533;51.246;6.850;2024-01-30T04:58:05;2.70;;;2.60;;
6985;SDS011;3533;51.246;6.850;2024-01-30T05:00:30;3.10;;;2.90;;
6985;SDS011;3533;51.246;6.850;2024-01-30T05:02:56;3.40;;;3.20;;
6985;SDS011;3533;51.246;6.850;2024-01-30T05:05:21;3.30;;;3.10;;
6985;SDS011;3533;51.246;6.850;2024-01-30T05:07:47;3.93;;;3.73;;
6985;SDS011;3533;51.246;6.850;2024-01-30T05:10:13;3.17;;;2.97;;
6985;SDS011;3533;51.246;6.850;2024-01-30T05:12:39;3.20;;;3.00;;
6985;SDS011;3533;51.246;6.850;2024-01-30T05:15:04;3.27;;;3.07;;
6985;SDS011;3533;51.246;6.850;2024-01-30T05:17:30;3.50;;;3.30;;
6985;SDS011;3533;51.246;6.850;2024-01-30T05:19:56;3.37;;;3.17;;
6985;SDS011;3533;51.246;6.850;2024-01-30T05:22:21;3.30;;;3.10;;
6985;SDS011;3533;51.246;6.850;2024-01-30T05:24:47;3.33;;;3.13;;
6985;SDS011;3533;51.246;6.850;2024-01-30T05:27:12;3.53;;;3.23;;
6985;SDS011;3533;51.246;6.850;2024-01-30T05:29:39;2.83;;;2.73;;
6985;SDS011;3533;51.246;6.850;2024-01-30T05:32:06;3.10;;;3.00;;
6985;SDS011;3533;51.246;6.850;2024-01-30T05:34:31;3.00;;;2.80;;
6985;SDS011;3533;51.246;6.850;2024-01-30T05:36:59;2.70;;;2.60;;
6985;SDS011;3533;51.246;6.850;2024-01-30T05:39:24;3.10;;;2.90;;
6985;SDS011;3533;51.246;6.850;2024-01-30T05:41:50;3.10;;;2.90;;
6985;SDS011;3533;51.246;6.850;2024-01-30T05:44:15;3.00;;;2.80;;
6985;SDS011;3533;51.246;6.850;2024-01-30T05:46:41;2.87;;;2.63;;
6985;SDS011;3533;51.246;6.850;2024-01-30T05:49:07;2.77;;;2.67;;
6985;SDS011;3533;51.246;6.850;2024-01-30T05:51:32;2.70;;;2.50;;
6985;SDS011;3533;51.246;6.850;2024-01-30T05:53:58;2.90;;;2.70;;
6985;SDS011;3533;51.246;6.850;2024-01-30T05:56:23;3.20;;;2.97;;
6985;SDS011;3533;51.246;6.850;2024-01-30T05:58:49;2.47;;;2.37;;
6985;SDS011;3533;51.246;6.850;2024-01-30T06:01:17;2.63;;;2.53;;
6985;SDS011;3533;51.246;6.850;2024-01-30T06:03:43;3.40;;;3.20;;
6985;SDS011;3533;51.246;6.850;2024-01-30T06:06:09;2.80;;;2.60;;
6985;SDS011;3533;51.246;6.850;2024-01-30T06:08:34;2.63;;;2.53;;
6985;SDS011;3533;51.246;6.850;2024-01-30T06:11:00;2.40;;;2.30;;
6985;SDS011;3533;51.246;6.850;2024-01-30T06:13:26;3.70;;;2.77;;
6985;SDS011;3533;51.246;6.850;2024-01-30T06:15:52;2.87;;;2.67;;
6985;SDS011;3533;51.246;6.850;2024-01-30T06:18:17;3.30;;;3.10;;
6985;SDS011;3533;51.246;6.850;2024-01-30T06:20:43;2.80;;;2.60;;
6985;SDS011;3533;51.246;6.850;2024-01-30T06:23:09;3.20;;;3.00;;
6985;SDS011;3533;51.246;6.850;2024-01-30T06:25:35;2.83;;;2.73;;
6985;SDS011;3533;51.246;6.850;2024-01-30T06:28:00;3.10;;;2.97;;
6985;SDS011;3533;51.246;6.850;2024-01-30T06:30:26;3.47;;;3.27;;
6985;SDS011;3533;51.246;6.850;2024-01-30T06:32:51;3.40;;;3.20;;
6985;SDS011;3533;51.246;6.850;2024-01-30T06:35:17;3.00;;;2.80;;
6985;SDS011;3533;51.246;6.850;2024-01-30T06:37:42;2.80;;;2.60;;
6985;SDS011;3533;51.246;6.850;2024-01-30T06:40:08;2.70;;;2.60;;
6985;SDS011;3533;51.246;6.850;2024-01-30T06:42:34;2.70;;;2.50;;
6985;SDS011;3533;51.246;6.850;2024-01-30T06:45:00;2.80;;;2.70;;
6985;SDS011;3533;51.246;6.850;2024-01-30T06:47:25;2.57;;;2.37;;
6985;SDS011;3533;51.246;6.850;2024-01-30T06:49:51;2.97;;;2.77;;
6985;SDS011;3533;51.246;6.850;2024-01-30T06:52:16;3.13;;;2.70;;
6985;SDS011;3533;51.246;6.850;2024-01-30T06:54:42;2.83;;;2.63;;
6985;SDS011;3533;51.246;6.850;2024-01-30T06:57:08;3.20;;;3.00;;
6985;SDS011;3533;51.246;6.850;2024-01-30T06:59:36;3.20;;;2.90;;
6985;SDS011;3533;51.246;6.850;2024-01-30T07:02:08;5.40;;;2.97;;
6985;SDS011;3533;51.246;6.850;2024-01-30T07:04:34;3.40;;;3.20;;
6985;SDS011;3533;51.246;6.850;2024-01-30T07:06:59;3.00;;;2.80;;
6985;SDS011;3533;51.246;6.850;2024-01-30T07:09:25;2.90;;;2.70;;
6985;SDS011;3533;51.246;6.850;2024-01-30T07:11:50;3.20;;;3.00;;
6985;SDS011;3533;51.246;6.850;2024-01-30T07:14:17;3.40;;;3.10;;
6985;SDS011;3533;51.246;6.850;2024-01-30T07:16:43;3.20;;;3.00;;
6985;SDS011;3533;51.246;6.850;2024-01-30T07:19:08;3.27;;;3.07;;
6985;SDS011;3533;51.246;6.850;2024-01-30T07:21:34;2.73;;;2.53;;
6985;SDS011;3533;51.246;6.850;2024-01-30T07:24:00;3.20;;;2.70;;
6985;SDS011;3533;51.246;6.850;2024-01-30T07:26:25;3.00;;;2.80;;
6985;SDS011;3533;51.246;6.850;2024-01-30T07:28:51;3.33;;;3.03;;
6985;SDS011;3533;51.246;6.850;2024-01-30T07:31:16;2.93;;;2.73;;
6985;SDS011;3533;51.246;6.850;2024-01-30T07:33:42;2.73;;;2.53;;
6985;SDS011;3533;51.246;6.850;2024-01-30T07:36:07;3.00;;;2.80;;
6985;SDS011;3533;51.246;6.850;2024-01-30T07:38:33;3.03;;;2.83;;
6985;SDS011;3533;51.246;6.850;2024-01-30T07:40:59;3.23;;;3.03;;
6985;SDS011;3533;51.246;6.850;2024-01-30T07:43:24;3.23;;;2.93;;
6985;SDS011;3533;51.246;6.850;2024-01-30T07:45:50;3.13;;;2.90;;
6985;SDS011;3533;51.246;6.850;2024-01-30T07:48:16;2.43;;;2.33;;
6985;SDS011;3533;51.246;6.850;2024-01-30T07:50:42;2.83;;;2.63;;
6985;SDS011;3533;51.246;6.850;2024-01-30T07:53:07;2.83;;;2.63;;
6985;SDS011;3533;51.246;6.850;2024-01-30T07:55:33;3.30;;;3.00;;
6985;SDS011;3533;51.246;6.850;2024-01-30T07:57:58;2.97;;;2.87;;
6985;SDS011;3533;51.246;6.850;2024-01-30T08:00:24;2.87;;;2.67;;
6985;SDS011;3533;51.246;6.850;2024-01-30T08:02:50;3.13;;;2.93;;
6985;SDS011;3533;51.246;6.850;2024-01-30T08:05:15;2.87;;;2.67;;
6985;SDS011;3533;51.246;6.850;2024-01-30T08:07:41;2.70;;;2.50;;
6985;SDS011;3533;51.246;6.850;2024-01-30T08:10:11;2.97;;;2.77;;
6985;SDS011;3533;51.246;6.850;2024-01-30T08:12:37;3.57;;;3.37;;
6985;SDS011;3533;51.246;6.850;2024-01-30T08:15:03;3.20;;;3.00;;
6985;SDS011;3533;51.246;6.850;2024-01-30T08:17:29;3.07;;;2.87;;
6985;SDS011;3533;51.246;6.850;2024-01-30T08:19:55;3.47;;;3.27;;
6985;SDS011;3533;51.246;6.850;2024-01-30T08:22:20;3.27;;;3.07;;
6985;SDS011;3533;51.246;6.850;2024-01-30T08:24:46;2.60;;;2.50;;
6985;SDS011;3533;51.246;6.850;2024-01-30T08:27:11;2.43;;;2.33;;
6985;SDS011;3533;51.246;6.850;2024-01-30T08:29:37;2.90;;;2.70;;
6985;SDS011;3533;51.246;6.850;2024-01-30T08:32:04;2.67;;;2.47;;
6985;SDS011;3533;51.246;6.850;2024-01-30T08:34:31;3.10;;;2.90;;
6985;SDS011;3533;51.246;6.850;2024-01-30T08:36:56;2.67;;;2.57;;
6985;SDS011;3533;51.246;6.850;2024-01-30T08:39:22;3.00;;;2.80;;
6985;SDS011;3533;51.246;6.850;2024-01-30T08:41:47;3.17;;;2.97;;
6985;SDS011;3533;51.246;6.850;2024-01-30T08:44:13;2.97;;;2.77;;
6985;SDS011;3533;51.246;6.850;2024-01-30T08:46:39;2.67;;;2.57;;
6985;SDS011;3533;51.246;6.850;2024-01-30T08:49:04;3.07;;;2.77;;
6985;SDS011;3533;51.246;6.850;2024-01-30T08:51:30;2.37;;;2.27;;
6985;SDS011;3533;51.246;6.850;2024-01-30T08:53:56;3.03;;;2.83;;
6985;SDS011;3533;51.246;6.850;2024-01-30T08:56:21;3.00;;;2.80;;
6985;SDS011;3533;51.246;6.850;2024-01-30T08:58:47;2.70;;;2.50;;
6985;SDS011;3533;51.246;6.850;2024-01-30T09:01:12;3.00;;;2.80;;
6985;SDS011;3533;51.246;6.850;2024-01-30T09:03:38;2.63;;;2.53;;
6985;SDS011;3533;51.246;6.850;2024-01-30T09:06:09;2.80;;;2.60;;
6985;SDS011;3533;51.246;6.850;2024-01-30T09:08:35;2.37;;;2.27;;
6985;SDS011;3533;51.246;6.850;2024-01-30T09:11:00;2.47;;;2.37;;
6985;SDS011;3533;51.246;6.850;2024-01-30T09:13:26;2.60;;;2.50;;
6985;SDS011;3533;51.246;6.850;2024-01-30T09:15:51;2.67;;;2.47;;
6985;SDS011;3533;51.246;6.850;2024-01-30T09:18:18;3.97;;;3.20;;
6985;SDS011;3533;51.246;6.850;2024-01-30T09:20:43;2.60;;;2.40;;
6985;SDS011;3533;51.246;6.850;2024-01-30T09:23:12;2.53;;;2.33;;
6985;SDS011;3533;51.246;6.850;2024-01-30T09:25:38;2.73;;;2.60;;
6985;SDS011;3533;51.246;6.850;2024-01-30T09:28:03;2.60;;;2.50;;
6985;SDS011;3533;51.246;6.850;2024-01-30T09:30:29;2.77;;;2.67;;
6985;SDS011;3533;51.246;6.850;2024-01-30T09:32:55;2.90;;;2.70;;
6985;SDS011;3533;51.246;6.850;2024-01-30T09:35:20;2.90;;;2.70;;
6985;SDS011;3533;51.246;6.850;2024-01-30T09:37:46;3.00;;;2.80;;
6985;SDS011;3533;51.246;6.850;2024-01-30T09:40:11;2.70;;;2.50;;
6985;SDS011;3533;51.246;6.850;2024-01-30T09:42:37;3.00;;;2.80;;
6985;SDS011;3533;51.246;6.850;2024-01-30T09:45:04;2.57;;;2.43;;
6985;SDS011;3533;51.246;6.850;2024-01-30T09:47:43;3.13;;;2.93;;
6985;SDS011;3533;51.246;6.850;2024-01-30T09:50:10;3.10;;;2.90;;
6985;SDS011;3533;51.246;6.850;2024-01-30T09:52:37;2.20;;;2.10;;
6985;SDS011;3533;51.246;6.850;2024-01-30T09:55:03;2.40;;;2.30;;
6985;SDS011;3533;51.246;6.850;2024-01-30T09:57:29;2.43;;;2.33;;
6985;SDS011;3533;51.246;6.850;2024-01-30T09:59:55;2.93;;;2.73;;
6985;SDS011;3533;51.246;6.850;2024-01-30T10:02:21;2.50;;;2.40;;
6985;SDS011;3533;51.246;6.850;2024-01-30T10:04:47;3.07;;;2.77;;
6985;SDS011;3533;51.246;6.850;2024-01-30T10:07:14;2.97;;;2.63;;
6985;SDS011;3533;51.246;6.850;2024-01-30T10:09:40;2.40;;;2.30;;
6985;SDS011;3533;51.246;6.850;2024-01-30T10:12:06;2.63;;;2.43;;
6985;SDS011;3533;51.246;6.850;2024-01-30T10:14:32;2.63;;;2.53;;
6985;SDS011;3533;51.246;6.850;2024-01-30T10:16:58;2.40;;;2.30;;
6985;SDS011;3533;51.246;6.850;2024-01-30T10:19:24;2.70;;;2.60;;
6985;SDS011;3533;51.246;6.850;2024-01-30T10:21:49;2.77;;;2.60;;
6985;SDS011;3533;51.246;6.850;2024-01-30T10:24:15;2.30;;;2.20;;
6985;SDS011;3533;51.246;6.850;2024-01-30T10:26:43;3.00;;;2.80;;
6985;SDS011;3533;51.246;6.850;2024-01-30T10:29:09;2.53;;;2.43;;
6985;SDS011;3533;51.246;6.850;2024-01-30T10:31:34;2.73;;;2.30;;
6985;SDS011;3533;51.246;6.850;2024-01-30T10:34:00;2.67;;;2.57;;
6985;SDS011;3533;51.246;6.850;2024-01-30T10:36:28;2.50;;;2.40;;
6985;SDS011;3533;51.246;6.850;2024-01-30T10:38:55;2.60;;;2.50;;
6985;SDS011;3533;51.246;6.850;2024-01-30T10:41:26;2.77;;;2.67;;
6985;SDS011;3533;51.246;6.850;2024-01-30T10:44:01;2.57;;;2.47;;
6985;SDS011;3533;51.246;6.850;2024-01-30T10:46:33;3.13;;;2.93;;
6985;SDS011;3533;51.246;6.850;2024-01-30T10:49:00;2.40;;;2.20;;
6985;SDS011;3533;51.246;6.850;2024-01-30T10:51:26;2.57;;;2.47;;
6985;SDS011;3533;51.246;6.850;2024-01-30T10:53:52;2.27;;;2.17;;
6985;SDS011;3533;51.246;6.850;2024-01-30T10:56:21;2.47;;;2.37;;
6985;SDS011;3533;51.246;6.850;2024-01-30T10:58:48;2.87;;;2.40;;
6985;SDS011;3533;51.246;6.850;2024-01-30T11:01:18;2.30;;;2.20;;
6985;SDS011;3533;51.246;6.850;2024-01-30T11:03:47;2.70;;;2.50;;
6985;SDS011;3533;51.246;6.850;2024-01-30T11:06:15;2.50;;;2.40;;
6985;SDS011;3533;51.246;6.850;2024-01-30T11:08:43;2.30;;;2.20;;
6985;SDS011;3533;51.246;6.850;2024-01-30T11:11:10;2.97;;;2.77;;
6985;SDS011;3533;51.246;6.850;2024-01-30T11:13:35;2.33;;;2.23;;
6985;SDS011;3533;51.246;6.850;2024-01-30T11:16:02;2.57;;;2.40;;
6985;SDS011;3533;51.246;6.850;2024-01-30T11:18:31;4.47;;;2.70;;
6985;SDS011;3533;51.246;6.850;2024-01-30T11:20:58;2.40;;;2.30;;
6985;SDS011;3533;51.246;6.850;2024-01-30T11:23:26;2.60;;;2.50;;
6985;SDS011;3533;51.246;6.850;2024-01-30T11:25:56;2.80;;;2.60;;
6985;SDS011;3533;51.246;6.850;2024-01-30T11:28:22;2.90;;;2.80;;
6985;SDS011;3533;51.246;6.850;2024-01-30T11:30:48;2.60;;;2.50;;
6985;SDS011;3533;51.246;6.850;2024-01-30T11:33:15;3.00;;;2.80;;
6985;SDS011;3533;51.246;6.850;2024-01-30T11:35:52;2.80;;;2.60;;
6985;SDS011;3533;51.246;6.850;2024-01-30T11:38:18;3.13;;;2.93;;
6985;SDS011;3533;51.246;6.850;2024-01-30T11:40:43;2.47;;;2.37;;
6985;SDS011;3533;51.246;6.850;2024-01-30T11:43:09;3.20;;;3.00;;
6985;SDS011;3533;51.246;6.850;2024-01-30T11:45:35;2.83;;;2.73;;
6985;SDS011;3533;51.246;6.850;2024-01-30T11:48:01;2.70;;;2.50;;
6985;SDS011;3533;51.246;6.850;2024-01-30T11:50:32;3.13;;;2.93;;
6985;SDS011;3533;51.246;6.850;2024-01-30T11:53:01;3.10;;;2.90;;
6985;SDS011;3533;51.246;6.850;2024-01-30T11:55:28;2.93;;;2.73;;
6985;SDS011;3533;51.246;6.850;2024-01-30T11:57:55;2.97;;;2.77;;
6985;SDS011;3533;51.246;6.850;2024-01-30T12:00:21;2.30;;;2.20;;
6985;SDS011;3533;51.246;6.850;2024-01-30T12:02:50;3.00;;;2.80;;
6985;SDS011;3533;51.246;6.850;2024-01-30T12:05:20;2.97;;;2.77;;
6985;SDS011;3533;51.246;6.850;2024-01-30T12:07:53;2.43;;;2.23;;
6985;SDS011;3533;51.246;6.850;2024-01-30T12:10:18;2.83;;;2.60;;
6985;SDS011;3533;51.246;6.850;2024-01-30T12:12:48;2.47;;;2.37;;
6985;SDS011;3533;51.246;6.850;2024-01-30T12:15:14;2.50;;;2.40;;
6985;SDS011;3533;51.246;6.850;2024-01-30T12:17:41;2.60;;;2.50;;
6985;SDS011;3533;51.246;6.850;2024-01-30T12:20:10;2.77;;;2.57;;
6985;SDS011;3533;51.246;6.850;2024-01-30T12:22:37;3.00;;;2.80;;
6985;SDS011;3533;51.246;6.850;2024-01-30T12:25:08;2.13;;;2.00;;
6985;SDS011;3533;51.246;6.850;2024-01-30T12:27:34;3.47;;;3.27;;
6985;SDS011;3533;51.246;6.850;2024-01-30T12:30:00;2.43;;;2.13;;
6985;SDS011;3533;51.246;6.850;2024-01-30T12:32:25;3.10;;;2.90;;
6985;SDS011;3533;51.246;6.850;2024-01-30T12:34:55;2.53;;;2.40;;
6985;SDS011;3533;51.246;6.850;2024-01-30T12:37:21;2.40;;;2.30;;
6985;SDS011;3533;51.246;6.850;2024-01-30T12:39:49;2.53;;;2.43;;
6985;SDS011;3533;51.246;6.850;2024-01-30T12:42:16;2.57;;;2.47;;
6985;SDS011;3533;51.246;6.850;2024-01-30T12:44:42;2.60;;;2.50;;
6985;SDS011;3533;51.246;6.850;2024-01-30T12:47:10;2.50;;;2.40;;
6985;SDS011;3533;51.246;6.850;2024-01-30T12:49:36;2.77;;;2.57;;
6985;SDS011;3533;51.246;6.850;2024-01-30T12:52:02;2.30;;;2.20;;
6985;SDS011;3533;51.246;6.850;2024-01-30T12:54:27;2.30;;;2.20;;
6985;SDS011;3533;51.246;6.850;2024-01-30T12:56:53;2.23;;;2.13;;
6985;SDS011;3533;51.246;6.850;2024-01-30T12:59:19;2.60;;;2.40;;
6985;SDS011;3533;51.246;6.850;2024-01-30T13:01:44;2.33;;;2.23;;
6985;SDS011;3533;51.246;6.850;2024-01-30T13:04:10;2.33;;;2.23;;
6985;SDS011;3533;51.246;6.850;2024-01-30T13:06:36;2.43;;;2.33;;
6985;SDS011;3533;51.246;6.850;2024-01-30T13:09:02;2.60;;;2.40;;
6985;SDS011;3533;51.246;6.850;2024-01-30T13:11:27;2.50;;;2.33;;
6985;SDS011;3533;51.246;6.850;2024-01-30T13:13:53;2.50;;;2.30;;
6985;SDS011;3533;51.246;6.850;2024-01-30T13:16:18;2.60;;;2.50;;
6985;SDS011;3533;51.246;6.850;2024-01-30T13:18:44;2.00;;;1.90;;
6985;SDS011;3533;51.246;6.850;2024-01-30T13:21:10;2.30;;;2.20;;
6985;SDS011;3533;51.246;6.850;2024-01-30T13:23:35;2.40;;;2.23;;
6985;SDS011;3533;51.246;6.850;2024-01-30T13:26:01;2.50;;;2.30;;
6985;SDS011;3533;51.246;6.850;2024-01-30T13:28:27;3.10;;;2.80;;
6985;SDS011;3533;51.246;6.850;2024-01-30T13:30:52;2.60;;;2.40;;
6985;SDS011;3533;51.246;6.850;2024-01-30T13:33:18;5.13;;;2.30;;
6985;SDS011;3533;51.246;6.850;2024-01-30T13:35:44;2.37;;;2.17;;
6985;SDS011;3533;51.246;6.850;2024-01-30T13:38:09;2.63;;;2.43;;
6985;SDS011;3533;51.246;6.850;2024-01-30T13:40:35;2.10;;;2.00;;
6985;SDS011;3533;51.246;6.850;2024-01-30T13:43:01;2.37;;;2.20;;
6985;SDS011;3533;51.246;6.850;2024-01-30T13:45:26;2.00;;;1.90;;
6985;SDS011;3533;51.246;6.850;2024-01-30T13:47:52;2.40;;;2.30;;
6985;SDS011;3533;51.246;6.850;2024-01-30T13:50:18;2.10;;;2.00;;
6985;SDS011;3533;51.246;6.850;2024-01-30T13:52:43;2.13;;;2.03;;
6985;SDS011;3533;51.246;6.850;2024-01-30T13:55:09;2.07;;;1.97;;
6985;SDS011;3533;51.246;6.850;2024-01-30T13:57:35;2.07;;;1.97;;
6985;SDS011;3533;51.246;6.850;2024-01-30T14:00:02;2.27;;;2.17;;
6985;SDS011;3533;51.246;6.850;2024-01-30T14:02:31;2.20;;;2.10;;
6985;SDS011;3533;51.246;6.850;2024-01-30T14:04:57;2.30;;;2.10;;
6985;SDS011;3533;51.246;6.850;2024-01-30T14:07:23;1.90;;;1.80;;
6985;SDS011;3533;51.246;6.850;2024-01-30T14:09:48;2.17;;;2.07;;
6985;SDS011;3533;51.246;6.850;2024-01-30T14:12:14;2.00;;;1.90;;
6985;SDS011;3533;51.246;6.850;2024-01-30T14:14:40;2.00;;;1.90;;
6985;SDS011;3533;51.246;6.850;2024-01-30T14:17:06;2.03;;;1.80;;
6985;SDS011;3533;51.246;6.850;2024-01-30T14:19:33;2.13;;;1.93;;
6985;SDS011;3533;51.246;6.850;2024-01-30T14:21:59;2.37;;;2.17;;
6985;SDS011;3533;51.246;6.850;2024-01-30T14:24:24;2.03;;;1.93;;
6985;SDS011;3533;51.246;6.850;2024-01-30T14:26:50;2.00;;;1.90;;
6985;SDS011;3533;51.246;6.850;2024-01-30T14:29:16;2.00;;;1.90;;
6985;SDS011;3533;51.246;6.850;2024-01-30T14:31:41;2.70;;;2.30;;
6985;SDS011;3533;51.246;6.850;2024-01-30T14:34:07;2.30;;;2.20;;
6985;SDS011;3533;51.246;6.850;2024-01-30T14:36:35;2.27;;;2.17;;
6985;SDS011;3533;51.246;6.850;2024-01-30T14:39:03;2.03;;;1.93;;
6985;SDS011;3533;51.246;6.850;2024-01-30T14:41:29;2.30;;;2.20;;
6985;SDS011;3533;51.246;6.850;2024-01-30T14:43:55;1.70;;;1.60;;
6985;SDS011;3533;51.246;6.850;2024-01-30T14:46:21;1.97;;;1.87;;
6985;SDS011;3533;51.246;6.850;2024-01-30T14:48:47;2.00;;;1.90;;
6985;SDS011;3533;51.246;6.850;2024-01-30T14:51:12;1.70;;;1.60;;
6985;SDS011;3533;51.246;6.850;2024-01-30T14:53:38;2.20;;;1.90;;
6985;SDS011;3533;51.246;6.850;2024-01-30T14:56:04;1.90;;;1.80;;
6985;SDS011;3533;51.246;6.850;2024-01-30T14:58:31;2.37;;;2.17;;
6985;SDS011;3533;51.246;6.850;2024-01-30T15:00:57;4.17;;;2.10;;
6985;SDS011;3533;51.246;6.850;2024-01-30T15:03:22;2.47;;;2.27;;
6985;SDS011;3533;51.246;6.850;2024-01-30T15:05:48;2.00;;;1.90;;
6985;SDS011;3533;51.246;6.850;2024-01-30T15:08:13;2.10;;;2.00;;